Stuart, IA

10:13 PM CDT on September 15, 2014 (GMT -0500)
S.W. of Earlham | Change Station
CLOSE
Current Station
Personal Weather Station
Location: Earlham, IA
Elevation: 1145 ft
Nearby Weather Stations

Elev 1145 ft 41.46 °N, 94.17 °W | Updated 14 seconds ago

Clear
Clear
48.4 °F
Feels Like 48 °F
N
0.0
Wind Variable Wind from WSW
Gusts 0.0 mph

Today
High -- | Low -- °F
--% Chance of Precip.
Yesterday
High -- | Low -- °F
Precip. -- in
6:57 AM 7:26 PM
Waning Gibbous, 50% visible
Pressure 30.25 in
Visibility 10.0 miles
Clouds Clear
Windchill 48 °F
Dew Point 47 °F
Humidity 94%
Rainfall 0.18 in
Snow Depth Not available.
UV 0 out of 12
Pollen 4.10 out of 12
Air Quality Not available.
Flu Activity Not available.
METAR KPRO 160255Z AUTO 28003KT 10SM CLR 09/08 A3025 RMK AO2 T00850075

More Conditions Fewer Conditions

Pressure 30.25 in
Visibility 10.0 miles
Clouds Clear
Windchill 48 °F
Dew Point 47 °F
Humidity 94%
Rainfall 0.18 in
Snow Depth Not available.
UV 0 out of 12
Pollen 4.10 out of 12
Air Quality Not available.
Flu Activity Not available.
METAR KPRO 160255Z AUTO 28003KT 10SM CLR 09/08 A3025 RMK AO2 T00850075

More Conditions Fewer Conditions

10-Day Weather Forecast

Almanac

Astronomy

Sep. 15, 2014 Rise Set
Actual Time 6:57 AM CDT 7:26 PM CDT
Civil Twilight 6:29 AM CDT 7:54 PM CDT
Nautical Twilight 5:56 AM CDT 8:27 PM CDT
Astronomical Twilight 5:23 AM CDT 9:00 PM CDT
Moon No Moon Rise 2:02 PM CDT (9/15)
Length of Visible Light 13h 24m
Length of Day
12h 28m
Tomorrow will be 2m 45s shorter.
Waning Gibbous, 50% of the Moon is Illuminated
Today
Waning Gibbous
Sep 24
New
Oct 1
First Quarter
Oct 8
Full
Oct 15
Last Quarter

Today's Extremes

State Highs State Lows

Community

WunderPhotos

Upload Photos

1,753,694 photos uploaded!

Nearby

Snow Depth

Station Depth Elevation
No new snow has been reported.

Earthquake Activity

City Distance Mag. Time & Date
No recent earthquake activity has been reported nearby.
Minimum magnitude displayed is 2.5.

Coastal Water Temperatures

Place Temperature
No Stations Reporting

Nearby Weather Stations